sensor_id;sensor_type;location;lat;lon;timestamp;P1;durP1;ratioP1;P2;durP2;ratioP2
14799;SDS011;7491;57.750;11.970;2023-06-22T00:01:56;10.88;;;6.60;;
14799;SDS011;7491;57.750;11.970;2023-06-22T00:04:23;14.70;;;7.15;;
14799;SDS011;7491;57.750;11.970;2023-06-22T00:06:50;13.68;;;6.22;;
14799;SDS011;7491;57.750;11.970;2023-06-22T00:09:16;10.60;;;6.07;;
14799;SDS011;7491;57.750;11.970;2023-06-22T00:11:43;11.80;;;6.28;;
14799;SDS011;7491;57.750;11.970;2023-06-22T00:14:11;10.65;;;6.07;;
14799;SDS011;7491;57.750;11.970;2023-06-22T00:16:38;10.07;;;6.28;;
14799;SDS011;7491;57.750;11.970;2023-06-22T00:19:08;9.18;;;6.35;;
14799;SDS011;7491;57.750;11.970;2023-06-22T00:21:36;13.00;;;6.50;;
14799;SDS011;7491;57.750;11.970;2023-06-22T00:24:04;12.90;;;6.75;;
14799;SDS011;7491;57.750;11.970;2023-06-22T00:26:32;13.82;;;7.13;;
14799;SDS011;7491;57.750;11.970;2023-06-22T00:28:59;11.80;;;6.20;;
14799;SDS011;7491;57.750;11.970;2023-06-22T00:31:27;11.30;;;6.45;;
14799;SDS011;7491;57.750;11.970;2023-06-22T00:33:53;13.02;;;6.35;;
14799;SDS011;7491;57.750;11.970;2023-06-22T00:36:20;13.10;;;6.90;;
14799;SDS011;7491;57.750;11.970;2023-06-22T00:38:49;12.27;;;6.28;;
14799;SDS011;7491;57.750;11.970;2023-06-22T00:41:16;11.02;;;6.10;;
14799;SDS011;7491;57.750;11.970;2023-06-22T00:43:43;10.13;;;6.38;;
14799;SDS011;7491;57.750;11.970;2023-06-22T00:46:10;10.50;;;6.40;;
14799;SDS011;7491;57.750;11.970;2023-06-22T00:48:39;11.90;;;6.03;;
14799;SDS011;7491;57.750;11.970;2023-06-22T00:51:06;15.30;;;6.05;;
14799;SDS011;7491;57.750;11.970;2023-06-22T00:53:34;14.60;;;5.97;;
14799;SDS011;7491;57.750;11.970;2023-06-22T00:56:03;14.60;;;6.07;;
14799;SDS011;7491;57.750;11.970;2023-06-22T00:58:30;13.07;;;6.07;;
14799;SDS011;7491;57.750;11.970;2023-06-22T01:00:58;12.82;;;5.45;;
14799;SDS011;7491;57.750;11.970;2023-06-22T01:03:25;11.43;;;5.45;;
14799;SDS011;7491;57.750;11.970;2023-06-22T01:05:53;11.52;;;6.03;;
14799;SDS011;7491;57.750;11.970;2023-06-22T01:08:29;12.88;;;6.28;;
14799;SDS011;7491;57.750;11.970;2023-06-22T01:11:05;11.95;;;5.72;;
14799;SDS011;7491;57.750;11.970;2023-06-22T01:13:35;10.60;;;5.93;;
14799;SDS011;7491;57.750;11.970;2023-06-22T01:16:08;9.85;;;5.55;;
14799;SDS011;7491;57.750;11.970;2023-06-22T01:18:41;13.20;;;5.70;;
14799;SDS011;7491;57.750;11.970;2023-06-22T01:21:11;15.32;;;5.53;;
14799;SDS011;7491;57.750;11.970;2023-06-22T01:23:46;10.82;;;5.90;;
14799;SDS011;7491;57.750;11.970;2023-06-22T01:26:21;9.95;;;5.82;;
14799;SDS011;7491;57.750;11.970;2023-06-22T01:28:56;13.85;;;6.63;;
14799;SDS011;7491;57.750;11.970;2023-06-22T01:31:25;11.02;;;5.43;;
14799;SDS011;7491;57.750;11.970;2023-06-22T01:33:56;14.05;;;6.50;;
14799;SDS011;7491;57.750;11.970;2023-06-22T01:36:25;8.18;;;5.68;;
14799;SDS011;7491;57.750;11.970;2023-06-22T01:38:53;10.70;;;5.80;;
14799;SDS011;7491;57.750;11.970;2023-06-22T01:41:20;18.35;;;6.75;;
14799;SDS011;7491;57.750;11.970;2023-06-22T01:43:48;12.70;;;5.85;;
14799;SDS011;7491;57.750;11.970;2023-06-22T01:46:17;15.18;;;6.07;;
14799;SDS011;7491;57.750;11.970;2023-06-22T01:48:45;10.70;;;6.07;;
14799;SDS011;7491;57.750;11.970;2023-06-22T01:51:12;11.95;;;5.82;;
14799;SDS011;7491;57.750;11.970;2023-06-22T01:53:39;12.45;;;6.25;;
14799;SDS011;7491;57.750;11.970;2023-06-22T01:56:07;15.00;;;5.88;;
14799;SDS011;7491;57.750;11.970;2023-06-22T01:58:34;12.18;;;5.80;;
14799;SDS011;7491;57.750;11.970;2023-06-22T02:01:09;14.90;;;6.13;;
14799;SDS011;7491;57.750;11.970;2023-06-22T02:03:42;11.57;;;5.75;;
14799;SDS011;7491;57.750;11.970;2023-06-22T02:06:15;15.40;;;6.85;;
14799;SDS011;7491;57.750;11.970;2023-06-22T02:08:47;15.00;;;6.53;;
14799;SDS011;7491;57.750;11.970;2023-06-22T02:11:19;12.43;;;6.43;;
14799;SDS011;7491;57.750;11.970;2023-06-22T02:13:46;12.15;;;5.75;;
14799;SDS011;7491;57.750;11.970;2023-06-22T02:16:14;11.18;;;6.45;;
14799;SDS011;7491;57.750;11.970;2023-06-22T02:18:47;15.27;;;6.53;;
14799;SDS011;7491;57.750;11.970;2023-06-22T02:21:16;13.23;;;5.78;;
14799;SDS011;7491;57.750;11.970;2023-06-22T02:23:42;13.95;;;5.60;;
14799;SDS011;7491;57.750;11.970;2023-06-22T02:26:09;16.33;;;5.70;;
14799;SDS011;7491;57.750;11.970;2023-06-22T02:28:36;16.27;;;6.07;;
14799;SDS011;7491;57.750;11.970;2023-06-22T02:31:03;17.55;;;6.82;;
14799;SDS011;7491;57.750;11.970;2023-06-22T02:33:30;13.38;;;5.28;;
14799;SDS011;7491;57.750;11.970;2023-06-22T02:35:58;15.88;;;5.95;;
14799;SDS011;7491;57.750;11.970;2023-06-22T02:38:25;14.30;;;5.80;;
14799;SDS011;7491;57.750;11.970;2023-06-22T02:40:51;13.85;;;5.50;;
14799;SDS011;7491;57.750;11.970;2023-06-22T02:43:18;16.13;;;6.20;;
14799;SDS011;7491;57.750;11.970;2023-06-22T02:45:45;14.82;;;6.47;;
14799;SDS011;7491;57.750;11.970;2023-06-22T02:48:12;16.92;;;5.93;;
14799;SDS011;7491;57.750;11.970;2023-06-22T02:50:38;12.52;;;5.80;;
14799;SDS011;7491;57.750;11.970;2023-06-22T02:53:06;14.13;;;5.72;;
14799;SDS011;7491;57.750;11.970;2023-06-22T02:55:33;13.00;;;5.70;;
14799;SDS011;7491;57.750;11.970;2023-06-22T02:58:00;14.65;;;6.32;;
14799;SDS011;7491;57.750;11.970;2023-06-22T03:00:30;11.63;;;5.75;;
14799;SDS011;7491;57.750;11.970;2023-06-22T03:02:56;11.10;;;6.03;;
14799;SDS011;7491;57.750;11.970;2023-06-22T03:05:23;14.15;;;5.93;;
14799;SDS011;7491;57.750;11.970;2023-06-22T03:07:51;14.27;;;6.25;;
14799;SDS011;7491;57.750;11.970;2023-06-22T03:10:19;11.90;;;5.95;;
14799;SDS011;7491;57.750;11.970;2023-06-22T03:12:46;14.27;;;6.03;;
14799;SDS011;7491;57.750;11.970;2023-06-22T03:15:13;14.13;;;5.75;;
14799;SDS011;7491;57.750;11.970;2023-06-22T03:17:40;11.95;;;5.72;;
14799;SDS011;7491;57.750;11.970;2023-06-22T03:20:07;15.48;;;6.43;;
14799;SDS011;7491;57.750;11.970;2023-06-22T03:22:35;13.38;;;6.20;;
14799;SDS011;7491;57.750;11.970;2023-06-22T03:25:02;12.38;;;6.35;;
14799;SDS011;7491;57.750;11.970;2023-06-22T03:27:31;16.15;;;5.97;;
14799;SDS011;7491;57.750;11.970;2023-06-22T03:29:58;12.73;;;6.03;;
14799;SDS011;7491;57.750;11.970;2023-06-22T03:32:24;13.23;;;5.43;;
14799;SDS011;7491;57.750;11.970;2023-06-22T03:34:53;16.52;;;7.10;;
14799;SDS011;7491;57.750;11.970;2023-06-22T03:37:19;15.27;;;6.47;;
14799;SDS011;7491;57.750;11.970;2023-06-22T03:39:46;12.45;;;5.90;;
14799;SDS011;7491;57.750;11.970;2023-06-22T03:42:13;15.98;;;6.18;;
14799;SDS011;7491;57.750;11.970;2023-06-22T03:44:41;20.05;;;6.38;;
14799;SDS011;7491;57.750;11.970;2023-06-22T03:47:08;18.10;;;5.50;;
14799;SDS011;7491;57.750;11.970;2023-06-22T03:49:34;10.20;;;5.95;;
14799;SDS011;7491;57.750;11.970;2023-06-22T03:52:02;15.43;;;6.03;;
14799;SDS011;7491;57.750;11.970;2023-06-22T03:54:29;11.65;;;6.05;;
14799;SDS011;7491;57.750;11.970;2023-06-22T03:56:57;17.10;;;6.68;;
14799;SDS011;7491;57.750;11.970;2023-06-22T03:59:24;14.13;;;5.95;;
14799;SDS011;7491;57.750;11.970;2023-06-22T04:01:52;18.45;;;6.47;;
14799;SDS011;7491;57.750;11.970;2023-06-22T04:04:19;14.27;;;5.50;;
14799;SDS011;7491;57.750;11.970;2023-06-22T04:06:46;14.27;;;5.85;;
14799;SDS011;7491;57.750;11.970;2023-06-22T04:09:13;15.40;;;6.65;;
14799;SDS011;7491;57.750;11.970;2023-06-22T04:11:40;16.88;;;6.30;;
14799;SDS011;7491;57.750;11.970;2023-06-22T04:14:06;14.68;;;5.53;;
14799;SDS011;7491;57.750;11.970;2023-06-22T04:16:33;16.52;;;6.63;;
14799;SDS011;7491;57.750;11.970;2023-06-22T04:19:01;13.80;;;6.35;;
14799;SDS011;7491;57.750;11.970;2023-06-22T04:21:28;14.18;;;6.50;;
14799;SDS011;7491;57.750;11.970;2023-06-22T04:23:55;10.18;;;5.65;;
14799;SDS011;7491;57.750;11.970;2023-06-22T04:26:21;14.30;;;6.28;;
14799;SDS011;7491;57.750;11.970;2023-06-22T04:28:48;10.48;;;5.68;;
14799;SDS011;7491;57.750;11.970;2023-06-22T04:31:20;16.55;;;5.80;;
14799;SDS011;7491;57.750;11.970;2023-06-22T04:33:57;12.93;;;6.10;;
14799;SDS011;7491;57.750;11.970;2023-06-22T04:36:31;12.07;;;5.75;;
14799;SDS011;7491;57.750;11.970;2023-06-22T04:39:02;14.05;;;6.32;;
14799;SDS011;7491;57.750;11.970;2023-06-22T04:41:30;17.30;;;5.82;;
14799;SDS011;7491;57.750;11.970;2023-06-22T04:44:06;13.95;;;6.20;;
14799;SDS011;7491;57.750;11.970;2023-06-22T04:46:34;14.30;;;5.80;;
14799;SDS011;7491;57.750;11.970;2023-06-22T04:49:03;11.85;;;6.10;;
14799;SDS011;7491;57.750;11.970;2023-06-22T04:51:38;13.60;;;6.43;;
14799;SDS011;7491;57.750;11.970;2023-06-22T04:54:06;11.07;;;6.15;;
14799;SDS011;7491;57.750;11.970;2023-06-22T04:56:34;16.40;;;6.63;;
14799;SDS011;7491;57.750;11.970;2023-06-22T04:59:01;12.93;;;6.38;;
14799;SDS011;7491;57.750;11.970;2023-06-22T05:01:29;10.73;;;5.82;;
14799;SDS011;7491;57.750;11.970;2023-06-22T05:03:57;12.75;;;6.28;;
14799;SDS011;7491;57.750;11.970;2023-06-22T05:06:26;8.68;;;5.60;;
14799;SDS011;7491;57.750;11.970;2023-06-22T05:08:54;13.63;;;5.72;;
14799;SDS011;7491;57.750;11.970;2023-06-22T05:11:23;13.25;;;6.35;;
14799;SDS011;7491;57.750;11.970;2023-06-22T05:13:51;14.32;;;6.70;;
14799;SDS011;7491;57.750;11.970;2023-06-22T05:16:17;11.23;;;5.97;;
14799;SDS011;7491;57.750;11.970;2023-06-22T05:18:49;9.70;;;6.28;;
14799;SDS011;7491;57.750;11.970;2023-06-22T05:21:18;14.30;;;6.35;;
14799;SDS011;7491;57.750;11.970;2023-06-22T05:23:46;15.60;;;6.20;;
14799;SDS011;7491;57.750;11.970;2023-06-22T05:26:14;13.65;;;6.38;;
14799;SDS011;7491;57.750;11.970;2023-06-22T05:28:41;12.20;;;6.97;;
14799;SDS011;7491;57.750;11.970;2023-06-22T05:31:11;14.57;;;6.40;;
14799;SDS011;7491;57.750;11.970;2023-06-22T05:33:38;16.52;;;6.43;;
14799;SDS011;7491;57.750;11.970;2023-06-22T05:36:05;14.40;;;6.55;;
14799;SDS011;7491;57.750;11.970;2023-06-22T05:38:32;10.38;;;5.80;;
14799;SDS011;7491;57.750;11.970;2023-06-22T05:40:59;17.35;;;6.40;;
14799;SDS011;7491;57.750;11.970;2023-06-22T05:43:27;15.68;;;5.75;;
14799;SDS011;7491;57.750;11.970;2023-06-22T05:45:54;14.50;;;6.25;;
14799;SDS011;7491;57.750;11.970;2023-06-22T05:48:20;15.13;;;5.75;;
14799;SDS011;7491;57.750;11.970;2023-06-22T05:50:47;11.63;;;6.28;;
14799;SDS011;7491;57.750;11.970;2023-06-22T05:53:14;16.48;;;5.93;;
14799;SDS011;7491;57.750;11.970;2023-06-22T05:55:41;14.32;;;5.95;;
14799;SDS011;7491;57.750;11.970;2023-06-22T05:58:08;12.88;;;6.32;;
14799;SDS011;7491;57.750;11.970;2023-06-22T06:00:36;18.63;;;6.88;;
14799;SDS011;7491;57.750;11.970;2023-06-22T06:03:03;12.15;;;6.07;;
14799;SDS011;7491;57.750;11.970;2023-06-22T06:05:30;16.55;;;6.43;;
14799;SDS011;7491;57.750;11.970;2023-06-22T06:07:57;7.65;;;5.53;;
14799;SDS011;7491;57.750;11.970;2023-06-22T06:10:24;16.55;;;6.57;;
14799;SDS011;7491;57.750;11.970;2023-06-22T06:12:51;11.82;;;6.35;;
14799;SDS011;7491;57.750;11.970;2023-06-22T06:15:18;11.32;;;5.72;;
14799;SDS011;7491;57.750;11.970;2023-06-22T06:17:46;11.15;;;5.50;;
14799;SDS011;7491;57.750;11.970;2023-06-22T06:20:14;15.05;;;6.05;;
14799;SDS011;7491;57.750;11.970;2023-06-22T06:22:40;13.10;;;5.75;;
14799;SDS011;7491;57.750;11.970;2023-06-22T06:25:09;14.02;;;6.30;;
14799;SDS011;7491;57.750;11.970;2023-06-22T06:27:41;12.13;;;6.25;;
14799;SDS011;7491;57.750;11.970;2023-06-22T06:30:08;16.45;;;5.90;;
14799;SDS011;7491;57.750;11.970;2023-06-22T06:32:36;10.07;;;5.53;;
14799;SDS011;7491;57.750;11.970;2023-06-22T06:35:05;12.88;;;6.55;;
14799;SDS011;7491;57.750;11.970;2023-06-22T06:37:35;10.98;;;6.43;;
14799;SDS011;7491;57.750;11.970;2023-06-22T06:40:02;15.38;;;6.20;;
14799;SDS011;7491;57.750;11.970;2023-06-22T06:42:32;12.75;;;6.20;;
14799;SDS011;7491;57.750;11.970;2023-06-22T06:44:58;11.88;;;5.75;;
14799;SDS011;7491;57.750;11.970;2023-06-22T06:47:25;12.13;;;5.95;;
14799;SDS011;7491;57.750;11.970;2023-06-22T06:49:52;13.65;;;6.13;;
14799;SDS011;7491;57.750;11.970;2023-06-22T06:52:20;11.88;;;5.53;;
14799;SDS011;7491;57.750;11.970;2023-06-22T06:54:46;11.40;;;5.22;;
14799;SDS011;7491;57.750;11.970;2023-06-22T06:57:13;8.40;;;5.47;;
14799;SDS011;7491;57.750;11.970;2023-06-22T06:59:40;11.82;;;5.95;;
14799;SDS011;7491;57.750;11.970;2023-06-22T07:02:07;12.23;;;5.43;;
14799;SDS011;7491;57.750;11.970;2023-06-22T07:04:34;11.93;;;5.50;;
14799;SDS011;7491;57.750;11.970;2023-06-22T07:07:01;11.70;;;6.10;;
14799;SDS011;7491;57.750;11.970;2023-06-22T07:09:29;13.48;;;6.00;;
14799;SDS011;7491;57.750;11.970;2023-06-22T07:11:56;12.25;;;5.05;;
14799;SDS011;7491;57.750;11.970;2023-06-22T07:14:23;10.43;;;5.40;;
14799;SDS011;7491;57.750;11.970;2023-06-22T07:16:50;10.52;;;5.65;;
14799;SDS011;7491;57.750;11.970;2023-06-22T07:19:16;11.43;;;5.68;;
14799;SDS011;7491;57.750;11.970;2023-06-22T07:21:51;13.43;;;6.78;;
14799;SDS011;7491;57.750;11.970;2023-06-22T07:24:18;14.93;;;5.70;;
14799;SDS011;7491;57.750;11.970;2023-06-22T07:26:47;10.63;;;5.10;;
14799;SDS011;7491;57.750;11.970;2023-06-22T07:29:15;10.95;;;5.25;;
14799;SDS011;7491;57.750;11.970;2023-06-22T07:31:42;7.93;;;4.53;;
14799;SDS011;7491;57.750;11.970;2023-06-22T07:34:08;15.23;;;6.13;;
14799;SDS011;7491;57.750;11.970;2023-06-22T07:36:35;14.02;;;5.30;;
14799;SDS011;7491;57.750;11.970;2023-06-22T07:39:02;12.90;;;5.78;;
14799;SDS011;7491;57.750;11.970;2023-06-22T07:41:29;13.20;;;5.82;;
14799;SDS011;7491;57.750;11.970;2023-06-22T07:43:57;11.18;;;5.47;;
14799;SDS011;7491;57.750;11.970;2023-06-22T07:46:24;8.95;;;5.13;;
14799;SDS011;7491;57.750;11.970;2023-06-22T07:48:51;10.10;;;5.50;;
14799;SDS011;7491;57.750;11.970;2023-06-22T07:51:18;11.73;;;5.25;;
14799;SDS011;7491;57.750;11.970;2023-06-22T07:53:44;13.30;;;6.13;;
14799;SDS011;7491;57.750;11.970;2023-06-22T07:56:11;9.20;;;5.03;;
14799;SDS011;7491;57.750;11.970;2023-06-22T07:58:38;9.77;;;5.07;;
14799;SDS011;7491;57.750;11.970;2023-06-22T08:01:07;7.78;;;5.47;;
14799;SDS011;7491;57.750;11.970;2023-06-22T08:03:34;9.63;;;4.85;;
14799;SDS011;7491;57.750;11.970;2023-06-22T08:06:00;8.18;;;5.03;;
14799;SDS011;7491;57.750;11.970;2023-06-22T08:08:27;10.23;;;4.75;;
14799;SDS011;7491;57.750;11.970;2023-06-22T08:10:54;11.25;;;5.05;;
14799;SDS011;7491;57.750;11.970;2023-06-22T08:13:20;7.10;;;4.68;;
14799;SDS011;7491;57.750;11.970;2023-06-22T08:15:47;10.63;;;4.80;;
14799;SDS011;7491;57.750;11.970;2023-06-22T08:18:15;11.52;;;4.90;;
14799;SDS011;7491;57.750;11.970;2023-06-22T08:20:42;10.60;;;4.82;;
14799;SDS011;7491;57.750;11.970;2023-06-22T08:23:09;7.95;;;4.70;;
14799;SDS011;7491;57.750;11.970;2023-06-22T08:25:36;4.47;;;4.07;;
14799;SDS011;7491;57.750;11.970;2023-06-22T08:28:03;6.43;;;4.10;;
14799;SDS011;7491;57.750;11.970;2023-06-22T08:30:30;7.90;;;4.22;;
14799;SDS011;7491;57.750;11.970;2023-06-22T08:32:57;11.77;;;4.95;;
14799;SDS011;7491;57.750;11.970;2023-06-22T08:35:25;7.95;;;4.30;;
14799;SDS011;7491;57.750;11.970;2023-06-22T08:37:52;7.47;;;4.22;;
14799;SDS011;7491;57.750;11.970;2023-06-22T08:40:20;8.32;;;4.20;;
14799;SDS011;7491;57.750;11.970;2023-06-22T08:42:48;5.53;;;4.45;;
14799;SDS011;7491;57.750;11.970;2023-06-22T08:45:15;8.98;;;4.38;;
14799;SDS011;7491;57.750;11.970;2023-06-22T08:47:42;8.45;;;4.40;;
14799;SDS011;7491;57.750;11.970;2023-06-22T08:50:10;7.72;;;4.60;;
14799;SDS011;7491;57.750;11.970;2023-06-22T08:52:40;11.15;;;4.30;;
14799;SDS011;7491;57.750;11.970;2023-06-22T08:55:07;9.07;;;4.53;;
14799;SDS011;7491;57.750;11.970;2023-06-22T08:57:35;10.73;;;4.32;;
14799;SDS011;7491;57.750;11.970;2023-06-22T09:00:04;10.93;;;4.18;;
14799;SDS011;7491;57.750;11.970;2023-06-22T09:02:40;6.43;;;4.05;;
14799;SDS011;7491;57.750;11.970;2023-06-22T09:05:07;8.77;;;3.97;;
14799;SDS011;7491;57.750;11.970;2023-06-22T09:07:34;11.40;;;4.03;;
14799;SDS011;7491;57.750;11.970;2023-06-22T09:10:03;7.05;;;4.55;;
14799;SDS011;7491;57.750;11.970;2023-06-22T09:12:31;6.03;;;3.55;;
14799;SDS011;7491;57.750;11.970;2023-06-22T09:14:58;8.20;;;3.78;;
14799;SDS011;7491;57.750;11.970;2023-06-22T09:17:25;6.40;;;3.47;;
14799;SDS011;7491;57.750;11.970;2023-06-22T09:19:52;7.32;;;4.50;;
14799;SDS011;7491;57.750;11.970;2023-06-22T09:22:19;8.32;;;3.90;;
14799;SDS011;7491;57.750;11.970;2023-06-22T09:24:46;8.52;;;4.05;;
14799;SDS011;7491;57.750;11.970;2023-06-22T09:27:14;8.05;;;3.75;;
14799;SDS011;7491;57.750;11.970;2023-06-22T09:29:41;7.75;;;3.85;;
14799;SDS011;7491;57.750;11.970;2023-06-22T09:32:07;7.22;;;4.35;;
14799;SDS011;7491;57.750;11.970;2023-06-22T09:34:34;5.63;;;3.53;;
14799;SDS011;7491;57.750;11.970;2023-06-22T09:37:01;5.70;;;3.63;;
14799;SDS011;7491;57.750;11.970;2023-06-22T09:39:28;9.05;;;4.65;;
14799;SDS011;7491;57.750;11.970;2023-06-22T09:41:55;8.05;;;4.10;;
14799;SDS011;7491;57.750;11.970;2023-06-22T09:44:23;5.75;;;3.78;;
14799;SDS011;7491;57.750;11.970;2023-06-22T09:46:52;6.60;;;3.78;;
14799;SDS011;7491;57.750;11.970;2023-06-22T09:49:19;6.15;;;3.60;;
14799;SDS011;7491;57.750;11.970;2023-06-22T09:51:46;6.70;;;4.20;;
14799;SDS011;7491;57.750;11.970;2023-06-22T09:54:14;7.88;;;3.65;;
14799;SDS011;7491;57.750;11.970;2023-06-22T09:56:41;5.45;;;3.72;;
14799;SDS011;7491;57.750;11.970;2023-06-22T09:59:08;7.75;;;3.92;;
14799;SDS011;7491;57.750;11.970;2023-06-22T10:01:40;6.78;;;3.90;;
14799;SDS011;7491;57.750;11.970;2023-06-22T10:04:07;6.40;;;4.10;;
14799;SDS011;7491;57.750;11.970;2023-06-22T10:06:34;9.73;;;4.32;;
14799;SDS011;7491;57.750;11.970;2023-06-22T10:09:00;8.60;;;4.07;;
14799;SDS011;7491;57.750;11.970;2023-06-22T10:11:27;6.95;;;3.58;;
14799;SDS011;7491;57.750;11.970;2023-06-22T10:13:55;5.10;;;3.72;;
14799;SDS011;7491;57.750;11.970;2023-06-22T10:16:23;7.07;;;3.92;;
14799;SDS011;7491;57.750;11.970;2023-06-22T10:18:53;8.52;;;3.88;;
14799;SDS011;7491;57.750;11.970;2023-06-22T10:21:20;6.55;;;3.88;;
14799;SDS011;7491;57.750;11.970;2023-06-22T10:23:46;6.57;;;3.88;;
14799;SDS011;7491;57.750;11.970;2023-06-22T10:26:13;7.30;;;3.75;;
14799;SDS011;7491;57.750;11.970;2023-06-22T10:28:40;3.80;;;3.40;;
14799;SDS011;7491;57.750;11.970;2023-06-22T10:31:07;5.55;;;3.85;;
14799;SDS011;7491;57.750;11.970;2023-06-22T10:33:33;6.03;;;3.25;;
14799;SDS011;7491;57.750;11.970;2023-06-22T10:36:02;6.07;;;3.65;;
14799;SDS011;7491;57.750;11.970;2023-06-22T10:38:29;7.13;;;3.88;;
14799;SDS011;7491;57.750;11.970;2023-06-22T10:40:55;6.90;;;3.90;;
14799;SDS011;7491;57.750;11.970;2023-06-22T10:43:22;8.60;;;3.97;;
14799;SDS011;7491;57.750;11.970;2023-06-22T10:45:50;7.43;;;3.70;;
14799;SDS011;7491;57.750;11.970;2023-06-22T10:48:17;7.47;;;4.35;;
14799;SDS011;7491;57.750;11.970;2023-06-22T10:50:44;8.40;;;4.38;;
14799;SDS011;7491;57.750;11.970;2023-06-22T10:53:12;5.25;;;4.15;;
14799;SDS011;7491;57.750;11.970;2023-06-22T10:55:39;7.97;;;3.83;;
14799;SDS011;7491;57.750;11.970;2023-06-22T10:58:05;6.22;;;4.18;;
14799;SDS011;7491;57.750;11.970;2023-06-22T11:00:32;7.78;;;4.35;;
14799;SDS011;7491;57.750;11.970;2023-06-22T11:02:59;10.07;;;4.22;;
14799;SDS011;7491;57.750;11.970;2023-06-22T11:05:25;9.82;;;4.78;;
14799;SDS011;7491;57.750;11.970;2023-06-22T11:07:52;6.63;;;4.38;;
14799;SDS011;7491;57.750;11.970;2023-06-22T11:10:20;8.20;;;4.47;;
14799;SDS011;7491;57.750;11.970;2023-06-22T11:12:47;8.27;;;4.28;;
14799;SDS011;7491;57.750;11.970;2023-06-22T11:15:14;7.15;;;3.88;;
14799;SDS011;7491;57.750;11.970;2023-06-22T11:17:40;7.20;;;4.47;;
14799;SDS011;7491;57.750;11.970;2023-06-22T11:20:07;7.80;;;4.78;;
14799;SDS011;7491;57.750;11.970;2023-06-22T11:22:36;6.82;;;4.57;;
14799;SDS011;7491;57.750;11.970;2023-06-22T11:25:05;6.90;;;4.70;;
14799;SDS011;7491;57.750;11.970;2023-06-22T11:27:33;7.55;;;4.22;;
14799;SDS011;7491;57.750;11.970;2023-06-22T11:30:00;9.98;;;3.92;;
14799;SDS011;7491;57.750;11.970;2023-06-22T11:32:27;8.48;;;4.22;;
14799;SDS011;7491;57.750;11.970;2023-06-22T11:34:54;6.82;;;4.05;;
14799;SDS011;7491;57.750;11.970;2023-06-22T11:37:21;6.07;;;3.83;;
14799;SDS011;7491;57.750;11.970;2023-06-22T11:39:48;8.05;;;4.40;;
14799;SDS011;7491;57.750;11.970;2023-06-22T11:42:14;10.80;;;4.43;;
14799;SDS011;7491;57.750;11.970;2023-06-22T11:44:43;6.00;;;4.30;;
14799;SDS011;7491;57.750;11.970;2023-06-22T11:47:10;8.45;;;4.65;;
14799;SDS011;7491;57.750;11.970;2023-06-22T11:49:36;9.88;;;4.30;;
14799;SDS011;7491;57.750;11.970;2023-06-22T11:52:03;7.93;;;4.30;;
14799;SDS011;7491;57.750;11.970;2023-06-22T11:54:30;6.10;;;4.13;;
14799;SDS011;7491;57.750;11.970;2023-06-22T11:56:57;7.65;;;4.63;;
14799;SDS011;7491;57.750;11.970;2023-06-22T11:59:26;7.05;;;4.07;;
14799;SDS011;7491;57.750;11.970;2023-06-22T12:01:55;8.93;;;4.57;;
14799;SDS011;7491;57.750;11.970;2023-06-22T12:04:23;7.60;;;4.20;;
14799;SDS011;7491;57.750;11.970;2023-06-22T12:06:50;8.15;;;4.13;;
14799;SDS011;7491;57.750;11.970;2023-06-22T12:09:16;5.70;;;3.88;;
14799;SDS011;7491;57.750;11.970;2023-06-22T12:11:43;7.25;;;4.20;;
14799;SDS011;7491;57.750;11.970;2023-06-22T12:14:10;5.50;;;4.10;;
14799;SDS011;7491;57.750;11.970;2023-06-22T12:16:36;5.90;;;4.15;;
14799;SDS011;7491;57.750;11.970;2023-06-22T12:19:05;6.13;;;4.30;;
14799;SDS011;7491;57.750;11.970;2023-06-22T12:21:32;5.45;;;4.18;;
14799;SDS011;7491;57.750;11.970;2023-06-22T12:23:58;5.43;;;4.13;;
14799;SDS011;7491;57.750;11.970;2023-06-22T12:26:25;6.40;;;4.57;;
14799;SDS011;7491;57.750;11.970;2023-06-22T12:28:52;8.63;;;4.60;;
14799;SDS011;7491;57.750;11.970;2023-06-22T12:31:18;6.40;;;4.47;;
14799;SDS011;7491;57.750;11.970;2023-06-22T12:33:45;6.28;;;4.53;;
14799;SDS011;7491;57.750;11.970;2023-06-22T12:36:13;6.28;;;4.82;;
14799;SDS011;7491;57.750;11.970;2023-06-22T12:38:41;7.30;;;4.38;;
14799;SDS011;7491;57.750;11.970;2023-06-22T12:41:08;7.20;;;4.97;;
14799;SDS011;7491;57.750;11.970;2023-06-22T12:43:34;6.93;;;4.68;;
14799;SDS011;7491;57.750;11.970;2023-06-22T12:46:01;8.57;;;4.85;;
14799;SDS011;7491;57.750;11.970;2023-06-22T12:48:28;7.95;;;4.93;;
14799;SDS011;7491;57.750;11.970;2023-06-22T12:50:55;7.13;;;4.53;;
14799;SDS011;7491;57.750;11.970;2023-06-22T12:53:23;8.23;;;4.22;;
14799;SDS011;7491;57.750;11.970;2023-06-22T12:55:52;7.13;;;5.63;;
14799;SDS011;7491;57.750;11.970;2023-06-22T12:58:19;6.68;;;5.03;;
14799;SDS011;7491;57.750;11.970;2023-06-22T13:00:46;9.32;;;5.57;;
14799;SDS011;7491;57.750;11.970;2023-06-22T13:03:12;8.55;;;5.47;;
14799;SDS011;7491;57.750;11.970;2023-06-22T13:05:39;6.30;;;4.60;;
14799;SDS011;7491;57.750;11.970;2023-06-22T13:08:06;11.43;;;4.97;;
14799;SDS011;7491;57.750;11.970;2023-06-22T13:10:34;8.27;;;4.38;;
14799;SDS011;7491;57.750;11.970;2023-06-22T13:13:01;6.95;;;4.28;;
14799;SDS011;7491;57.750;11.970;2023-06-22T13:15:28;8.00;;;4.03;;
14799;SDS011;7491;57.750;11.970;2023-06-22T13:17:55;5.50;;;4.20;;
14799;SDS011;7491;57.750;11.970;2023-06-22T13:20:22;8.05;;;4.70;;
14799;SDS011;7491;57.750;11.970;2023-06-22T13:22:48;4.88;;;3.95;;
14799;SDS011;7491;57.750;11.970;2023-06-22T13:25:15;8.27;;;3.78;;
14799;SDS011;7491;57.750;11.970;2023-06-22T13:27:45;7.78;;;4.20;;
14799;SDS011;7491;57.750;11.970;2023-06-22T13:30:12;5.70;;;4.25;;
14799;SDS011;7491;57.750;11.970;2023-06-22T13:32:39;5.80;;;4.57;;
14799;SDS011;7491;57.750;11.970;2023-06-22T13:35:07;8.45;;;4.90;;
14799;SDS011;7491;57.750;11.970;2023-06-22T13:37:34;6.35;;;4.90;;
14799;SDS011;7491;57.750;11.970;2023-06-22T13:40:01;7.78;;;5.18;;
14799;SDS011;7491;57.750;11.970;2023-06-22T13:42:30;5.55;;;4.03;;
14799;SDS011;7491;57.750;11.970;2023-06-22T13:44:58;8.43;;;4.78;;
14799;SDS011;7491;57.750;11.970;2023-06-22T13:47:25;8.30;;;5.30;;
14799;SDS011;7491;57.750;11.970;2023-06-22T13:49:52;8.85;;;5.15;;
14799;SDS011;7491;57.750;11.970;2023-06-22T13:52:20;8.75;;;4.90;;
14799;SDS011;7491;57.750;11.970;2023-06-22T13:54:47;10.00;;;4.80;;
14799;SDS011;7491;57.750;11.970;2023-06-22T13:57:13;8.02;;;5.15;;
14799;SDS011;7491;57.750;11.970;2023-06-22T13:59:40;8.50;;;4.97;;
14799;SDS011;7491;57.750;11.970;2023-06-22T14:02:09;7.88;;;4.63;;
14799;SDS011;7491;57.750;11.970;2023-06-22T14:04:35;10.43;;;4.90;;
14799;SDS011;7491;57.750;11.970;2023-06-22T14:07:02;8.57;;;4.45;;
14799;SDS011;7491;57.750;11.970;2023-06-22T14:09:29;8.23;;;4.60;;
14799;SDS011;7491;57.750;11.970;2023-06-22T14:11:56;8.38;;;5.03;;
14799;SDS011;7491;57.750;11.970;2023-06-22T14:14:23;7.53;;;4.10;;
14799;SDS011;7491;57.750;11.970;2023-06-22T14:16:49;8.48;;;4.47;;
14799;SDS011;7491;57.750;11.970;2023-06-22T14:19:18;7.90;;;4.15;;
14799;SDS011;7491;57.750;11.970;2023-06-22T14:21:45;9.65;;;5.07;;
14799;SDS011;7491;57.750;11.970;2023-06-22T14:24:11;7.13;;;4.03;;
14799;SDS011;7491;57.750;11.970;2023-06-22T14:26:38;5.50;;;3.70;;
14799;SDS011;7491;57.750;11.970;2023-06-22T14:29:05;8.32;;;3.80;;
14799;SDS011;7491;57.750;11.970;2023-06-22T14:31:32;9.20;;;4.47;;
14799;SDS011;7491;57.750;11.970;2023-06-22T14:33:58;7.70;;;3.75;;
14799;SDS011;7491;57.750;11.970;2023-06-22T14:36:29;4.80;;;3.25;;
14799;SDS011;7491;57.750;11.970;2023-06-22T14:38:55;4.63;;;3.08;;
14799;SDS011;7491;57.750;11.970;2023-06-22T14:41:22;6.32;;;3.35;;
14799;SDS011;7491;57.750;11.970;2023-06-22T14:43:49;4.68;;;3.10;;